sensor_id;sensor_type;location;lat;lon;timestamp;temperature;humidity
7576;DHT22;3829;50.798;4.358;2023-03-01T00:01:05;1.40;99.90
7576;DHT22;3829;50.798;4.358;2023-03-01T00:03:32;1.50;99.90
7576;DHT22;3829;50.798;4.358;2023-03-01T00:05:57;1.50;99.90
7576;DHT22;3829;50.798;4.358;2023-03-01T00:08:24;1.40;99.90
7576;DHT22;3829;50.798;4.358;2023-03-01T00:10:49;1.30;99.90
7576;DHT22;3829;50.798;4.358;2023-03-01T00:13:15;1.40;99.90
7576;DHT22;3829;50.798;4.358;2023-03-01T00:15:41;1.20;99.90
7576;DHT22;3829;50.798;4.358;2023-03-01T00:18:07;1.40;99.90
7576;DHT22;3829;50.798;4.358;2023-03-01T00:20:34;1.30;99.90
7576;DHT22;3829;50.798;4.358;2023-03-01T00:23:00;1.30;99.90
7576;DHT22;3829;50.798;4.358;2023-03-01T00:25:25;1.30;99.90
7576;DHT22;3829;50.798;4.358;2023-03-01T00:27:51;1.30;99.90
7576;DHT22;3829;50.798;4.358;2023-03-01T00:30:16;1.30;99.90
7576;DHT22;3829;50.798;4.358;2023-03-01T00:32:42;1.20;99.90
7576;DHT22;3829;50.798;4.358;2023-03-01T00:35:08;1.30;99.90
7576;DHT22;3829;50.798;4.358;2023-03-01T00:37:33;1.30;99.90
7576;DHT22;3829;50.798;4.358;2023-03-01T00:39:59;1.20;99.90
7576;DHT22;3829;50.798;4.358;2023-03-01T00:42:24;1.10;99.90
7576;DHT22;3829;50.798;4.358;2023-03-01T00:44:50;1.20;99.90
7576;DHT22;3829;50.798;4.358;2023-03-01T00:47:15;1.00;99.90
7576;DHT22;3829;50.798;4.358;2023-03-01T00:49:41;1.00;99.90
7576;DHT22;3829;50.798;4.358;2023-03-01T00:52:07;0.90;99.90
7576;DHT22;3829;50.798;4.358;2023-03-01T00:54:32;0.80;99.90
7576;DHT22;3829;50.798;4.358;2023-03-01T00:56:58;1.00;99.90
7576;DHT22;3829;50.798;4.358;2023-03-01T00:59:23;0.90;99.90
7576;DHT22;3829;50.798;4.358;2023-03-01T01:01:49;0.90;99.90
7576;DHT22;3829;50.798;4.358;2023-03-01T01:04:14;1.00;99.90
7576;DHT22;3829;50.798;4.358;2023-03-01T01:06:43;0.90;99.90
7576;DHT22;3829;50.798;4.358;2023-03-01T01:09:11;0.90;99.90
7576;DHT22;3829;50.798;4.358;2023-03-01T01:11:43;0.90;99.90
7576;DHT22;3829;50.798;4.358;2023-03-01T01:14:09;0.80;99.90
7576;DHT22;3829;50.798;4.358;2023-03-01T01:16:35;0.70;99.90
7576;DHT22;3829;50.798;4.358;2023-03-01T01:19:01;0.90;99.90
7576;DHT22;3829;50.798;4.358;2023-03-01T01:21:27;0.80;99.90
7576;DHT22;3829;50.798;4.358;2023-03-01T01:23:53;0.80;99.90
7576;DHT22;3829;50.798;4.358;2023-03-01T01:26:21;0.70;99.90
7576;DHT22;3829;50.798;4.358;2023-03-01T01:28:48;0.60;99.90
7576;DHT22;3829;50.798;4.358;2023-03-01T01:31:14;0.80;99.90
7576;DHT22;3829;50.798;4.358;2023-03-01T01:33:39;0.70;99.90
7576;DHT22;3829;50.798;4.358;2023-03-01T01:36:06;0.70;99.90
7576;DHT22;3829;50.798;4.358;2023-03-01T01:38:32;0.70;99.90
7576;DHT22;3829;50.798;4.358;2023-03-01T01:40:58;0.70;99.90
7576;DHT22;3829;50.798;4.358;2023-03-01T01:43:29;0.80;99.90
7576;DHT22;3829;50.798;4.358;2023-03-01T01:46:01;0.70;99.90
7576;DHT22;3829;50.798;4.358;2023-03-01T01:49:03;0.70;99.90
7576;DHT22;3829;50.798;4.358;2023-03-01T01:51:38;0.70;99.90
7576;DHT22;3829;50.798;4.358;2023-03-01T01:54:23;0.60;99.90
7576;DHT22;3829;50.798;4.358;2023-03-01T01:56:54;0.60;99.90
7576;DHT22;3829;50.798;4.358;2023-03-01T01:59:22;0.70;99.90
7576;DHT22;3829;50.798;4.358;2023-03-01T02:01:51;0.60;99.90
7576;DHT22;3829;50.798;4.358;2023-03-01T02:04:17;0.60;99.90
7576;DHT22;3829;50.798;4.358;2023-03-01T02:06:54;0.60;99.90
7576;DHT22;3829;50.798;4.358;2023-03-01T02:09:23;0.60;99.90
7576;DHT22;3829;50.798;4.358;2023-03-01T02:11:49;0.60;99.90
7576;DHT22;3829;50.798;4.358;2023-03-01T02:14:16;0.60;99.90
7576;DHT22;3829;50.798;4.358;2023-03-01T02:16:42;0.60;99.90
7576;DHT22;3829;50.798;4.358;2023-03-01T02:19:09;0.60;99.90
7576;DHT22;3829;50.798;4.358;2023-03-01T02:22:05;0.60;99.90
7576;DHT22;3829;50.798;4.358;2023-03-01T02:27:13;0.50;99.90
7576;DHT22;3829;50.798;4.358;2023-03-01T02:29:39;0.40;99.90
7576;DHT22;3829;50.798;4.358;2023-03-01T02:32:06;0.40;99.90
7576;DHT22;3829;50.798;4.358;2023-03-01T02:34:32;0.50;99.90
7576;DHT22;3829;50.798;4.358;2023-03-01T02:37:07;0.50;99.90
7576;DHT22;3829;50.798;4.358;2023-03-01T02:39:40;0.40;99.90
7576;DHT22;3829;50.798;4.358;2023-03-01T02:42:11;0.40;99.90
7576;DHT22;3829;50.798;4.358;2023-03-01T02:44:37;0.40;99.90
7576;DHT22;3829;50.798;4.358;2023-03-01T02:47:03;0.40;99.90
7576;DHT22;3829;50.798;4.358;2023-03-01T02:49:32;0.40;99.90
7576;DHT22;3829;50.798;4.358;2023-03-01T02:52:23;0.50;99.90
7576;DHT22;3829;50.798;4.358;2023-03-01T02:55:23;0.40;99.90
7576;DHT22;3829;50.798;4.358;2023-03-01T02:57:48;0.30;99.90
7576;DHT22;3829;50.798;4.358;2023-03-01T03:00:20;0.30;99.90
7576;DHT22;3829;50.798;4.358;2023-03-01T03:02:51;0.20;99.90
7576;DHT22;3829;50.798;4.358;2023-03-01T03:05:20;0.30;99.90
7576;DHT22;3829;50.798;4.358;2023-03-01T03:07:47;0.30;99.90
7576;DHT22;3829;50.798;4.358;2023-03-01T03:12:54;0.20;99.90
7576;DHT22;3829;50.798;4.358;2023-03-01T03:15:21;0.10;99.90
7576;DHT22;3829;50.798;4.358;2023-03-01T03:17:48;0.20;99.90
7576;DHT22;3829;50.798;4.358;2023-03-01T03:20:17;0.20;99.90
7576;DHT22;3829;50.798;4.358;2023-03-01T03:22:50;0.20;99.90
7576;DHT22;3829;50.798;4.358;2023-03-01T03:25:20;0.10;99.90
7576;DHT22;3829;50.798;4.358;2023-03-01T03:27:48;0.10;99.90
7576;DHT22;3829;50.798;4.358;2023-03-01T03:30:16;0.00;99.90
7576;DHT22;3829;50.798;4.358;2023-03-01T03:32:44;0.10;99.90
7576;DHT22;3829;50.798;4.358;2023-03-01T03:35:22;-0.10;99.90
7576;DHT22;3829;50.798;4.358;2023-03-01T03:37:47;0.00;99.90
7576;DHT22;3829;50.798;4.358;2023-03-01T03:40:35;0.00;99.90
7576;DHT22;3829;50.798;4.358;2023-03-01T03:43:06;0.10;99.90
7576;DHT22;3829;50.798;4.358;2023-03-01T03:45:32;-0.10;99.90
7576;DHT22;3829;50.798;4.358;2023-03-01T03:47:59;0.00;99.90
7576;DHT22;3829;50.798;4.358;2023-03-01T03:50:25;-0.10;99.90
7576;DHT22;3829;50.798;4.358;2023-03-01T03:52:50;-0.10;99.90
7576;DHT22;3829;50.798;4.358;2023-03-01T03:55:16;-0.20;99.90
7576;DHT22;3829;50.798;4.358;2023-03-01T03:57:45;-0.10;99.90
7576;DHT22;3829;50.798;4.358;2023-03-01T04:00:17;0.00;99.90
7576;DHT22;3829;50.798;4.358;2023-03-01T04:02:44;-0.10;99.90
7576;DHT22;3829;50.798;4.358;2023-03-01T04:05:12;-0.10;99.90
7576;DHT22;3829;50.798;4.358;2023-03-01T04:07:38;-0.20;99.90
7576;DHT22;3829;50.798;4.358;2023-03-01T04:10:05;-0.10;99.90
7576;DHT22;3829;50.798;4.358;2023-03-01T04:12:32;-0.20;99.90
7576;DHT22;3829;50.798;4.358;2023-03-01T04:15:00;-0.30;99.90
7576;DHT22;3829;50.798;4.358;2023-03-01T04:17:25;-0.20;99.90
7576;DHT22;3829;50.798;4.358;2023-03-01T04:19:51;-0.20;99.90
7576;DHT22;3829;50.798;4.358;2023-03-01T04:22:17;-0.30;99.90
7576;DHT22;3829;50.798;4.358;2023-03-01T04:24:44;-0.30;99.90
7576;DHT22;3829;50.798;4.358;2023-03-01T04:27:10;-0.30;99.90
7576;DHT22;3829;50.798;4.358;2023-03-01T04:29:35;-0.30;99.90
7576;DHT22;3829;50.798;4.358;2023-03-01T04:32:01;-0.30;99.90
7576;DHT22;3829;50.798;4.358;2023-03-01T04:34:28;-0.30;99.90
7576;DHT22;3829;50.798;4.358;2023-03-01T04:36:54;-0.40;99.90
7576;DHT22;3829;50.798;4.358;2023-03-01T04:39:20;-0.40;99.90
7576;DHT22;3829;50.798;4.358;2023-03-01T04:41:46;-0.30;99.90
7576;DHT22;3829;50.798;4.358;2023-03-01T04:44:11;-0.30;99.90
7576;DHT22;3829;50.798;4.358;2023-03-01T04:46:38;-0.50;99.90
7576;DHT22;3829;50.798;4.358;2023-03-01T04:49:04;-0.40;99.90
7576;DHT22;3829;50.798;4.358;2023-03-01T04:51:31;-0.40;99.90
7576;DHT22;3829;50.798;4.358;2023-03-01T04:53:58;-0.40;99.90
7576;DHT22;3829;50.798;4.358;2023-03-01T04:56:23;-0.40;99.90
7576;DHT22;3829;50.798;4.358;2023-03-01T04:58:49;-0.40;99.90
7576;DHT22;3829;50.798;4.358;2023-03-01T05:01:19;-0.50;99.90
7576;DHT22;3829;50.798;4.358;2023-03-01T05:03:50;-0.40;99.90
7576;DHT22;3829;50.798;4.358;2023-03-01T05:06:20;-0.40;99.90
7576;DHT22;3829;50.798;4.358;2023-03-01T05:08:45;-0.50;99.90
7576;DHT22;3829;50.798;4.358;2023-03-01T05:11:11;-0.50;99.90
7576;DHT22;3829;50.798;4.358;2023-03-01T05:13:38;-0.50;99.90
7576;DHT22;3829;50.798;4.358;2023-03-01T05:16:05;-0.50;99.90
7576;DHT22;3829;50.798;4.358;2023-03-01T05:18:33;-0.40;99.90
7576;DHT22;3829;50.798;4.358;2023-03-01T05:21:17;-0.40;99.90
7576;DHT22;3829;50.798;4.358;2023-03-01T05:23:43;-0.50;99.90
7576;DHT22;3829;50.798;4.358;2023-03-01T05:26:09;-0.40;99.90
7576;DHT22;3829;50.798;4.358;2023-03-01T05:28:35;-0.50;99.90
7576;DHT22;3829;50.798;4.358;2023-03-01T05:31:01;-0.50;99.90
7576;DHT22;3829;50.798;4.358;2023-03-01T05:33:27;-0.60;99.90
7576;DHT22;3829;50.798;4.358;2023-03-01T05:35:53;-0.50;99.90
7576;DHT22;3829;50.798;4.358;2023-03-01T05:38:20;-0.50;99.90
7576;DHT22;3829;50.798;4.358;2023-03-01T05:40:47;-0.60;99.90
7576;DHT22;3829;50.798;4.358;2023-03-01T05:43:15;-0.60;99.90
7576;DHT22;3829;50.798;4.358;2023-03-01T05:45:42;-0.70;99.90
7576;DHT22;3829;50.798;4.358;2023-03-01T05:48:09;-0.70;99.90
7576;DHT22;3829;50.798;4.358;2023-03-01T05:50:40;-0.60;99.90
7576;DHT22;3829;50.798;4.358;2023-03-01T05:53:13;-0.60;99.90
7576;DHT22;3829;50.798;4.358;2023-03-01T05:55:39;-0.60;99.90
7576;DHT22;3829;50.798;4.358;2023-03-01T05:58:07;-0.70;99.90
7576;DHT22;3829;50.798;4.358;2023-03-01T06:00:33;-0.70;99.90
7576;DHT22;3829;50.798;4.358;2023-03-01T06:03:00;-0.70;99.90
7576;DHT22;3829;50.798;4.358;2023-03-01T06:05:26;-0.70;99.90
7576;DHT22;3829;50.798;4.358;2023-03-01T06:07:53;-0.70;99.90
7576;DHT22;3829;50.798;4.358;2023-03-01T06:10:20;-0.70;99.90
7576;DHT22;3829;50.798;4.358;2023-03-01T06:12:46;-0.70;99.90
7576;DHT22;3829;50.798;4.358;2023-03-01T06:15:13;-0.70;99.90
7576;DHT22;3829;50.798;4.358;2023-03-01T06:17:40;-0.70;99.90
7576;DHT22;3829;50.798;4.358;2023-03-01T06:20:13;-0.70;99.90
7576;DHT22;3829;50.798;4.358;2023-03-01T06:22:39;-0.80;99.90
7576;DHT22;3829;50.798;4.358;2023-03-01T06:25:06;-0.80;99.90
7576;DHT22;3829;50.798;4.358;2023-03-01T06:27:31;-0.90;99.90
7576;DHT22;3829;50.798;4.358;2023-03-01T06:29:57;-0.80;99.90
7576;DHT22;3829;50.798;4.358;2023-03-01T06:32:22;-0.80;99.90
7576;DHT22;3829;50.798;4.358;2023-03-01T06:34:49;-0.80;99.90
7576;DHT22;3829;50.798;4.358;2023-03-01T06:37:14;-0.90;99.90
7576;DHT22;3829;50.798;4.358;2023-03-01T06:39:40;-0.90;99.90
7576;DHT22;3829;50.798;4.358;2023-03-01T06:42:07;-0.90;99.90
7576;DHT22;3829;50.798;4.358;2023-03-01T06:44:33;-0.90;99.90
7576;DHT22;3829;50.798;4.358;2023-03-01T06:46:58;-0.90;99.90
7576;DHT22;3829;50.798;4.358;2023-03-01T06:49:24;-0.80;99.90
7576;DHT22;3829;50.798;4.358;2023-03-01T06:51:50;-0.80;99.90
7576;DHT22;3829;50.798;4.358;2023-03-01T06:54:15;-0.90;99.90
7576;DHT22;3829;50.798;4.358;2023-03-01T06:56:43;-0.90;99.90
7576;DHT22;3829;50.798;4.358;2023-03-01T06:59:11;-0.80;99.90
7576;DHT22;3829;50.798;4.358;2023-03-01T07:01:37;-0.80;99.90
7576;DHT22;3829;50.798;4.358;2023-03-01T07:04:02;-0.80;99.90
7576;DHT22;3829;50.798;4.358;2023-03-01T07:06:28;-0.80;99.90
7576;DHT22;3829;50.798;4.358;2023-03-01T07:08:53;-0.70;99.90
7576;DHT22;3829;50.798;4.358;2023-03-01T07:11:19;-0.70;99.90
7576;DHT22;3829;50.798;4.358;2023-03-01T07:13:44;-0.70;99.90
7576;DHT22;3829;50.798;4.358;2023-03-01T07:16:10;-0.60;99.90
7576;DHT22;3829;50.798;4.358;2023-03-01T07:18:36;-0.50;99.90
7576;DHT22;3829;50.798;4.358;2023-03-01T07:21:09;-0.40;99.90
7576;DHT22;3829;50.798;4.358;2023-03-01T07:23:36;-0.40;99.90
7576;DHT22;3829;50.798;4.358;2023-03-01T07:26:02;-0.40;99.90
7576;DHT22;3829;50.798;4.358;2023-03-01T07:28:28;-0.30;99.90
7576;DHT22;3829;50.798;4.358;2023-03-01T07:30:54;-0.30;99.90
7576;DHT22;3829;50.798;4.358;2023-03-01T07:33:19;-0.20;99.90
7576;DHT22;3829;50.798;4.358;2023-03-01T07:35:45;-0.10;99.90
7576;DHT22;3829;50.798;4.358;2023-03-01T07:38:10;0.00;99.90
7576;DHT22;3829;50.798;4.358;2023-03-01T07:40:36;0.00;99.90
7576;DHT22;3829;50.798;4.358;2023-03-01T07:43:02;0.10;99.90
7576;DHT22;3829;50.798;4.358;2023-03-01T07:45:28;0.10;99.90
7576;DHT22;3829;50.798;4.358;2023-03-01T07:47:55;0.30;99.90
7576;DHT22;3829;50.798;4.358;2023-03-01T07:50:21;0.30;99.90
7576;DHT22;3829;50.798;4.358;2023-03-01T07:52:48;0.40;99.90
7576;DHT22;3829;50.798;4.358;2023-03-01T07:55:15;0.40;99.90
7576;DHT22;3829;50.798;4.358;2023-03-01T07:57:40;0.50;99.90
7576;DHT22;3829;50.798;4.358;2023-03-01T08:00:07;0.50;99.90
7576;DHT22;3829;50.798;4.358;2023-03-01T08:02:33;0.50;99.90
7576;DHT22;3829;50.798;4.358;2023-03-01T08:04:59;0.60;99.90
7576;DHT22;3829;50.798;4.358;2023-03-01T08:07:24;0.60;99.90
7576;DHT22;3829;50.798;4.358;2023-03-01T08:09:50;0.70;99.90
7576;DHT22;3829;50.798;4.358;2023-03-01T08:12:15;0.70;99.90
7576;DHT22;3829;50.798;4.358;2023-03-01T08:14:44;0.80;99.90
7576;DHT22;3829;50.798;4.358;2023-03-01T08:17:09;0.80;99.90
7576;DHT22;3829;50.798;4.358;2023-03-01T08:19:35;0.80;99.90
7576;DHT22;3829;50.798;4.358;2023-03-01T08:22:04;0.80;99.90
7576;DHT22;3829;50.798;4.358;2023-03-01T08:24:29;0.90;99.90
7576;DHT22;3829;50.798;4.358;2023-03-01T08:26:55;1.00;99.90
7576;DHT22;3829;50.798;4.358;2023-03-01T08:29:21;1.10;99.90
7576;DHT22;3829;50.798;4.358;2023-03-01T08:31:47;1.10;99.90
7576;DHT22;3829;50.798;4.358;2023-03-01T08:34:16;1.20;99.90
7576;DHT22;3829;50.798;4.358;2023-03-01T08:36:43;1.10;99.90
7576;DHT22;3829;50.798;4.358;2023-03-01T08:39:11;1.20;99.90
7576;DHT22;3829;50.798;4.358;2023-03-01T08:41:37;1.20;99.90
7576;DHT22;3829;50.798;4.358;2023-03-01T08:44:03;1.30;99.90
7576;DHT22;3829;50.798;4.358;2023-03-01T08:46:35;1.40;99.90
7576;DHT22;3829;50.798;4.358;2023-03-01T08:49:05;1.50;99.90
7576;DHT22;3829;50.798;4.358;2023-03-01T08:51:32;1.60;99.90
7576;DHT22;3829;50.798;4.358;2023-03-01T08:54:06;1.70;99.90
7576;DHT22;3829;50.798;4.358;2023-03-01T08:56:32;1.80;99.90
7576;DHT22;3829;50.798;4.358;2023-03-01T08:58:58;1.90;99.90
7576;DHT22;3829;50.798;4.358;2023-03-01T09:01:24;2.00;99.90
7576;DHT22;3829;50.798;4.358;2023-03-01T09:03:49;2.10;99.90
7576;DHT22;3829;50.798;4.358;2023-03-01T09:06:15;2.20;99.90
7576;DHT22;3829;50.798;4.358;2023-03-01T09:08:43;2.20;99.90
7576;DHT22;3829;50.798;4.358;2023-03-01T09:11:11;2.20;99.90
7576;DHT22;3829;50.798;4.358;2023-03-01T09:13:37;2.30;99.90
7576;DHT22;3829;50.798;4.358;2023-03-01T09:16:05;2.50;99.90
7576;DHT22;3829;50.798;4.358;2023-03-01T09:18:32;2.60;99.90
7576;DHT22;3829;50.798;4.358;2023-03-01T09:21:06;2.60;99.90
7576;DHT22;3829;50.798;4.358;2023-03-01T09:23:44;2.50;99.90
7576;DHT22;3829;50.798;4.358;2023-03-01T09:26:12;2.60;99.90
7576;DHT22;3829;50.798;4.358;2023-03-01T09:28:40;2.60;99.90
7576;DHT22;3829;50.798;4.358;2023-03-01T09:31:10;2.70;99.90
7576;DHT22;3829;50.798;4.358;2023-03-01T09:33:38;2.80;99.90
7576;DHT22;3829;50.798;4.358;2023-03-01T09:36:06;2.80;99.90
7576;DHT22;3829;50.798;4.358;2023-03-01T09:38:33;2.80;99.90
7576;DHT22;3829;50.798;4.358;2023-03-01T09:41:00;2.60;99.90
7576;DHT22;3829;50.798;4.358;2023-03-01T09:43:34;2.70;99.90
7576;DHT22;3829;50.798;4.358;2023-03-01T09:46:06;2.80;99.90
7576;DHT22;3829;50.798;4.358;2023-03-01T09:48:42;2.80;99.90
7576;DHT22;3829;50.798;4.358;2023-03-01T09:51:14;2.80;99.90
7576;DHT22;3829;50.798;4.358;2023-03-01T09:53:42;2.90;99.90
7576;DHT22;3829;50.798;4.358;2023-03-01T09:56:22;3.10;99.90
7576;DHT22;3829;50.798;4.358;2023-03-01T10:06:49;3.40;99.90
7576;DHT22;3829;50.798;4.358;2023-03-01T10:09:17;3.40;99.90
7576;DHT22;3829;50.798;4.358;2023-03-01T10:11:54;3.50;99.90
7576;DHT22;3829;50.798;4.358;2023-03-01T10:14:42;3.50;99.90
7576;DHT22;3829;50.798;4.358;2023-03-01T10:17:33;3.60;99.90
7576;DHT22;3829;50.798;4.358;2023-03-01T10:20:19;3.70;99.90
7576;DHT22;3829;50.798;4.358;2023-03-01T10:22:45;3.90;99.90
7576;DHT22;3829;50.798;4.358;2023-03-01T10:27:53;3.80;99.90
7576;DHT22;3829;50.798;4.358;2023-03-01T10:30:29;3.90;99.90
7576;DHT22;3829;50.798;4.358;2023-03-01T10:32:57;4.00;99.90
7576;DHT22;3829;50.798;4.358;2023-03-01T10:35:25;4.10;99.90
7576;DHT22;3829;50.798;4.358;2023-03-01T10:38:09;4.10;99.90
7576;DHT22;3829;50.798;4.358;2023-03-01T10:40:36;4.20;99.90
7576;DHT22;3829;50.798;4.358;2023-03-01T10:43:12;4.20;99.90
7576;DHT22;3829;50.798;4.358;2023-03-01T10:45:40;4.30;99.90
7576;DHT22;3829;50.798;4.358;2023-03-01T10:50:44;4.30;99.90
7576;DHT22;3829;50.798;4.358;2023-03-01T10:53:42;4.40;99.90
7576;DHT22;3829;50.798;4.358;2023-03-01T10:56:10;4.40;99.90
7576;DHT22;3829;50.798;4.358;2023-03-01T10:58:40;4.50;99.90
7576;DHT22;3829;50.798;4.358;2023-03-01T11:06:30;4.50;99.90
7576;DHT22;3829;50.798;4.358;2023-03-01T11:08:56;4.60;99.90
7576;DHT22;3829;50.798;4.358;2023-03-01T11:11:32;4.70;99.90
7576;DHT22;3829;50.798;4.358;2023-03-01T11:14:17;4.70;99.90
7576;DHT22;3829;50.798;4.358;2023-03-01T11:16:49;4.80;99.90
7576;DHT22;3829;50.798;4.358;2023-03-01T11:19:23;4.80;99.90
7576;DHT22;3829;50.798;4.358;2023-03-01T11:22:12;4.80;99.90
7576;DHT22;3829;50.798;4.358;2023-03-01T11:27:25;5.00;99.90
7576;DHT22;3829;50.798;4.358;2023-03-01T11:32:36;5.10;99.90
7576;DHT22;3829;50.798;4.358;2023-03-01T11:35:20;5.10;99.90
7576;DHT22;3829;50.798;4.358;2023-03-01T11:40:39;5.20;99.90
7576;DHT22;3829;50.798;4.358;2023-03-01T11:43:14;5.20;99.90
7576;DHT22;3829;50.798;4.358;2023-03-01T11:45:56;5.40;99.90
7576;DHT22;3829;50.798;4.358;2023-03-01T11:56:38;5.40;99.90
7576;DHT22;3829;50.798;4.358;2023-03-01T12:02:02;5.50;99.90
7576;DHT22;3829;50.798;4.358;2023-03-01T12:10:44;5.80;99.90
7576;DHT22;3829;50.798;4.358;2023-03-01T12:36:04;6.10;99.90
7576;DHT22;3829;50.798;4.358;2023-03-01T12:38:45;6.10;99.90
7576;DHT22;3829;50.798;4.358;2023-03-01T12:41:46;6.20;99.90
7576;DHT22;3829;50.798;4.358;2023-03-01T12:44:23;6.10;99.90
7576;DHT22;3829;50.798;4.358;2023-03-01T12:47:20;6.20;99.90
7576;DHT22;3829;50.798;4.358;2023-03-01T12:49:52;6.40;99.90
7576;DHT22;3829;50.798;4.358;2023-03-01T12:54:56;6.40;99.90
7576;DHT22;3829;50.798;4.358;2023-03-01T12:57:40;6.40;99.90
7576;DHT22;3829;50.798;4.358;2023-03-01T13:06:22;6.50;99.90
7576;DHT22;3829;50.798;4.358;2023-03-01T13:09:12;6.60;99.90
7576;DHT22;3829;50.798;4.358;2023-03-01T13:11:44;6.60;99.90
7576;DHT22;3829;50.798;4.358;2023-03-01T13:16:51;6.30;99.90
7576;DHT22;3829;50.798;4.358;2023-03-01T13:19:21;6.50;99.90
7576;DHT22;3829;50.798;4.358;2023-03-01T13:21:49;6.70;99.90
7576;DHT22;3829;50.798;4.358;2023-03-01T13:27:18;6.80;99.90
7576;DHT22;3829;50.798;4.358;2023-03-01T13:29:50;6.90;99.90
7576;DHT22;3829;50.798;4.358;2023-03-01T13:32:29;6.80;99.90
7576;DHT22;3829;50.798;4.358;2023-03-01T13:35:00;6.80;99.90
7576;DHT22;3829;50.798;4.358;2023-03-01T13:37:31;6.80;99.90
7576;DHT22;3829;50.798;4.358;2023-03-01T13:40:00;6.80;99.90
7576;DHT22;3829;50.798;4.358;2023-03-01T13:42:36;6.70;99.90
7576;DHT22;3829;50.798;4.358;2023-03-01T13:45:04;6.80;99.90
7576;DHT22;3829;50.798;4.358;2023-03-01T13:47:33;6.80;99.90
7576;DHT22;3829;50.798;4.358;2023-03-01T13:50:04;6.60;99.90
7576;DHT22;3829;50.798;4.358;2023-03-01T13:52:54;6.70;99.90
7576;DHT22;3829;50.798;4.358;2023-03-01T13:55:45;6.80;99.90
7576;DHT22;3829;50.798;4.358;2023-03-01T13:58:31;6.70;99.90
7576;DHT22;3829;50.798;4.358;2023-03-01T14:00:58;6.80;99.90
7576;DHT22;3829;50.798;4.358;2023-03-01T14:03:25;6.80;99.90
7576;DHT22;3829;50.798;4.358;2023-03-01T14:08:35;6.80;99.90
7576;DHT22;3829;50.798;4.358;2023-03-01T14:19:18;7.20;99.90
7576;DHT22;3829;50.798;4.358;2023-03-01T14:21:47;7.10;99.90
7576;DHT22;3829;50.798;4.358;2023-03-01T14:24:21;7.00;99.90
7576;DHT22;3829;50.798;4.358;2023-03-01T14:26:48;7.00;99.90
7576;DHT22;3829;50.798;4.358;2023-03-01T14:29:37;6.90;99.90
7576;DHT22;3829;50.798;4.358;2023-03-01T14:32:21;6.80;99.90
7576;DHT22;3829;50.798;4.358;2023-03-01T14:34:49;6.90;99.90
7576;DHT22;3829;50.798;4.358;2023-03-01T14:37:27;7.30;99.90
7576;DHT22;3829;50.798;4.358;2023-03-01T14:39:53;7.60;99.90
7576;DHT22;3829;50.798;4.358;2023-03-01T14:42:21;8.00;99.90
7576;DHT22;3829;50.798;4.358;2023-03-01T14:44:50;8.20;99.90
7576;DHT22;3829;50.798;4.358;2023-03-01T14:49:57;8.20;99.90
7576;DHT22;3829;50.798;4.358;2023-03-01T14:52:33;8.20;99.90
7576;DHT22;3829;50.798;4.358;2023-03-01T14:55:00;8.30;99.90
7576;DHT22;3829;50.798;4.358;2023-03-01T14:57:26;8.60;99.90
7576;DHT22;3829;50.798;4.358;2023-03-01T14:59:59;8.70;99.90
7576;DHT22;3829;50.798;4.358;2023-03-01T15:02:27;8.70;99.90
7576;DHT22;3829;50.798;4.358;2023-03-01T15:05:00;8.70;99.90
7576;DHT22;3829;50.798;4.358;2023-03-01T15:07:29;8.50;99.90
7576;DHT22;3829;50.798;4.358;2023-03-01T15:09:57;8.90;99.90
7576;DHT22;3829;50.798;4.358;2023-03-01T15:14:55;9.10;99.90
7576;DHT22;3829;50.798;4.358;2023-03-01T15:19:53;8.40;99.90
7576;DHT22;3829;50.798;4.358;2023-03-01T15:22:19;7.80;99.90
7576;DHT22;3829;50.798;4.358;2023-03-01T15:24:48;7.60;99.90
7576;DHT22;3829;50.798;4.358;2023-03-01T15:27:19;7.40;99.90
7576;DHT22;3829;50.798;4.358;2023-03-01T15:29:57;7.30;99.90
7576;DHT22;3829;50.798;4.358;2023-03-01T15:35:01;7.00;99.90
7576;DHT22;3829;50.798;4.358;2023-03-01T15:37:47;6.90;99.90
7576;DHT22;3829;50.798;4.358;2023-03-01T15:40:25;6.90;99.90
7576;DHT22;3829;50.798;4.358;2023-03-01T15:43:01;6.90;99.90
7576;DHT22;3829;50.798;4.358;2023-03-01T15:45:29;6.80;99.90
7576;DHT22;3829;50.798;4.358;2023-03-01T15:48:02;6.80;99.90
7576;DHT22;3829;50.798;4.358;2023-03-01T15:50:31;6.70;99.90
7576;DHT22;3829;50.798;4.358;2023-03-01T15:53:03;6.70;99.90
7576;DHT22;3829;50.798;4.358;2023-03-01T15:55:32;6.60;99.90
7576;DHT22;3829;50.798;4.358;2023-03-01T15:57:59;6.60;99.90
7576;DHT22;3829;50.798;4.358;2023-03-01T16:00:26;6.60;99.90
7576;DHT22;3829;50.798;4.358;2023-03-01T16:02:52;6.60;99.90
7576;DHT22;3829;50.798;4.358;2023-03-01T16:07:48;6.60;99.90
7576;DHT22;3829;50.798;4.358;2023-03-01T16:10:14;6.60;99.90
7576;DHT22;3829;50.798;4.358;2023-03-01T16:12:40;6.60;99.90
7576;DHT22;3829;50.798;4.358;2023-03-01T16:17:52;6.50;99.90
7576;DHT22;3829;50.798;4.358;2023-03-01T16:20:18;6.50;99.90
7576;DHT22;3829;50.798;4.358;2023-03-01T16:22:45;6.40;99.90
7576;DHT22;3829;50.798;4.358;2023-03-01T16:25:12;6.50;99.90
7576;DHT22;3829;50.798;4.358;2023-03-01T16:27:38;6.30;99.90
7576;DHT22;3829;50.798;4.358;2023-03-01T16:30:05;6.30;99.90
7576;DHT22;3829;50.798;4.358;2023-03-01T16:32:31;6.30;99.90
7576;DHT22;3829;50.798;4.358;2023-03-01T16:34:57;6.20;99.90
7576;DHT22;3829;50.798;4.358;2023-03-01T16:37:22;6.10;99.90
7576;DHT22;3829;50.798;4.358;2023-03-01T16:39:48;6.10;99.90
7576;DHT22;3829;50.798;4.358;2023-03-01T16:42:17;6.10;99.90
7576;DHT22;3829;50.798;4.358;2023-03-01T16:44:43;6.10;99.90
7576;DHT22;3829;50.798;4.358;2023-03-01T16:47:08;6.10;99.90
7576;DHT22;3829;50.798;4.358;2023-03-01T16:49:34;6.00;99.90
7576;DHT22;3829;50.798;4.358;2023-03-01T16:51:59;5.90;99.90
7576;DHT22;3829;50.798;4.358;2023-03-01T16:54:25;6.00;99.90
7576;DHT22;3829;50.798;4.358;2023-03-01T16:56:51;6.00;99.90
7576;DHT22;3829;50.798;4.358;2023-03-01T16:59:16;6.00;99.90
7576;DHT22;3829;50.798;4.358;2023-03-01T17:01:44;5.80;99.90
7576;DHT22;3829;50.798;4.358;2023-03-01T17:04:13;5.80;99.90
7576;DHT22;3829;50.798;4.358;2023-03-01T17:06:39;5.80;99.90
7576;DHT22;3829;50.798;4.358;2023-03-01T17:09:04;5.70;99.90
7576;DHT22;3829;50.798;4.358;2023-03-01T17:11:30;5.70;99.90
7576;DHT22;3829;50.798;4.358;2023-03-01T17:13:55;5.70;99.90
7576;DHT22;3829;50.798;4.358;2023-03-01T17:16:21;5.60;99.90
7576;DHT22;3829;50.798;4.358;2023-03-01T17:18:47;5.60;99.90
7576;DHT22;3829;50.798;4.358;2023-03-01T17:21:13;5.50;99.90
7576;DHT22;3829;50.798;4.358;2023-03-01T17:23:41;5.50;99.90
7576;DHT22;3829;50.798;4.358;2023-03-01T17:26:07;5.40;99.90
7576;DHT22;3829;50.798;4.358;2023-03-01T17:28:34;5.40;99.90
7576;DHT22;3829;50.798;4.358;2023-03-01T17:31:02;5.40;99.90
7576;DHT22;3829;50.798;4.358;2023-03-01T17:33:28;5.30;99.90
7576;DHT22;3829;50.798;4.358;2023-03-01T17:35:57;5.30;99.90
7576;DHT22;3829;50.798;4.358;2023-03-01T17:38:23;5.20;99.90
7576;DHT22;3829;50.798;4.358;2023-03-01T17:40:48;5.20;99.90
7576;DHT22;3829;50.798;4.358;2023-03-01T17:43:15;5.20;99.90
7576;DHT22;3829;50.798;4.358;2023-03-01T17:45:41;5.00;99.90
7576;DHT22;3829;50.798;4.358;2023-03-01T17:48:09;5.00;99.90
7576;DHT22;3829;50.798;4.358;2023-03-01T17:50:37;5.00;99.90
7576;DHT22;3829;50.798;4.358;2023-03-01T17:53:03;5.00;99.90
7576;DHT22;3829;50.798;4.358;2023-03-01T17:55:34;5.00;99.90
7576;DHT22;3829;50.798;4.358;2023-03-01T17:58:00;5.00;99.90
7576;DHT22;3829;50.798;4.358;2023-03-01T18:00:25;5.00;99.90
7576;DHT22;3829;50.798;4.358;2023-03-01T18:02:52;4.90;99.90
7576;DHT22;3829;50.798;4.358;2023-03-01T18:05:18;4.80;99.90
7576;DHT22;3829;50.798;4.358;2023-03-01T18:07:43;4.80;99.90
7576;DHT22;3829;50.798;4.358;2023-03-01T18:10:10;4.80;99.90
7576;DHT22;3829;50.798;4.358;2023-03-01T18:12:35;4.80;99.90
7576;DHT22;3829;50.798;4.358;2023-03-01T18:15:01;4.80;99.90
7576;DHT22;3829;50.798;4.358;2023-03-01T18:17:27;4.70;99.90
7576;DHT22;3829;50.798;4.358;2023-03-01T18:19:52;4.70;99.90